Terminal Aerodrome Forecast
Issued by NWS Jacksonville, FL

Home | Current Version | Previous Version | Text Only | Print | Product List | Glossary On
Versions: 1 2 3 4 5 6 7 8 9 10 11 12 13 14 15 16
000
FTUS42 KJAX 022032 AAA
TAFSSI
TAF AMD
KSSI 022032Z 0221/0318 15010KT P6SM VCTS SCT025 BKN050CB BKN100
      TEMPO 0221/0222 VRB15G25KT 2SM TSRA BKN025CB
     FM030000 VRB05KT P6SM SCT040 BKN120=

USA.gov is the U.S. government's official web portal to all federal, state and local government web resources and services.